Latest Weather Observations for Hobart

IDT60801

Issued at 9:31 am EDT Saturday 10 December 2022 (issued every 10 minutes, with the page automatically refreshed every 10 minutes)

About weather observations | Map of weather stations | Latest weather observations for TAS | Other Formats
Station Details ID: 094029 Name: HOBART (ELLERSLIE ROAD) Lat: -42.89 Lon: 147.33 Height: 50.5 m
Data from the previous 72 hours. | See also: Recent months at Hobart
Date/Time
EDT
Temp
°C
App
Temp
°C
Dew
Point
°C
Rel
Hum
%
Delta-T
°C
Wind Press
QNH
hPa
Press
MSL
hPa
Rain since
9am
mm
Dir  Spd
km/h
Gust
km/h
Spd
kts
Gust
kts
10/09:30am 15.0 12.3 7.3 60 3.8 ESE 11 15 6 8 1017.9 1017.8 0.0
10/09:00am 14.9 12.4 8.4 65 3.3 ENE 11 13 6 7 1018.1 1018.0 3.6
10/08:30am 15.2 13.2 7.3 59 3.9 N 7 11 4 6 1018.1 1018.0 3.6
10/08:00am 14.4 12.7 7.5 63 3.4 E 6 11 3 6 1018.0 1017.9 3.6
10/07:30am 14.3 12.7 8.0 66 3.1 E 6 9 3 5 1017.9 1017.8 3.6
10/07:00am 13.4 11.6 8.0 70 2.7 SW 7 9 4 5 1018.0 1017.9 3.6
10/06:30am 11.5 9.8 8.4 81 1.5 WSW 7 11 4 6 1017.9 1017.8 3.6
10/06:00am 11.0 8.9 8.1 82 1.4 WSW 9 11 5 6 1017.9 1017.8 3.6
10/05:30am 10.9 8.8 8.1 83 1.4 WSW 9 9 5 5 1017.8 1017.7 3.6
10/05:00am 10.9 9.4 8.3 84 1.3 WSW 6 7 3 4 1017.7 1017.6 3.6
10/04:30am 11.0 9.3 8.2 83 1.4 WSW 7 11 4 6 1017.8 1017.7 3.6
10/04:00am 11.0 9.3 8.2 83 1.4 WSW 7 9 4 5 1017.9 1017.8 3.6
10/03:30am 11.1 9.6 8.3 83 1.4 WSW 6 7 3 4 1017.9 1017.8 3.6
10/03:00am 11.3 9.5 8.0 80 1.6 WNW 7 9 4 5 1017.8 1017.7 3.6
10/02:30am 11.3 9.1 8.0 80 1.6 WSW 9 11 5 6 1017.9 1017.8 3.6
10/02:00am 11.5 10.2 7.8 78 1.8 SW 4 7 2 4 1018.0 1017.9 3.6
10/01:30am 11.5 10.1 7.4 76 2.0 W 4 7 2 4 1018.0 1017.9 3.6
10/01:00am 11.6 9.3 7.3 75 2.1 SSW 9 13 5 7 1018.1 1018.0 3.6
10/12:30am 11.7 8.2 7.4 75 2.1 SSW 15 20 8 11 1018.1 1018.0 3.6
10/12:00am 11.8 9.5 7.5 75 2.1 SSW 9 15 5 8 1018.4 1018.3 3.6
 
Date/Time
EDT
Temp
°C
App
Temp
°C
Dew
Point
°C
Rel
Hum
%
Delta-T
°C
Wind Press
QNH
hPa
Press
MSL
hPa
Rain since
9am
mm
Dir  Spd
km/h
Gust
km/h
Spd
kts
Gust
kts
09/11:30pm 11.7 8.8 8.0 78 1.8 SSW 13 17 7 9 1018.3 1018.2 3.6
09/11:00pm 11.7 8.4 8.0 78 1.8 SSW 15 20 8 11 1018.6 1018.5 3.6
09/10:30pm 11.6 7.9 8.1 79 1.7 SW 17 24 9 13 1018.6 1018.5 3.6
09/10:00pm 12.0 8.2 7.7 75 2.1 SSW 17 24 9 13 1018.6 1018.5 3.6
09/09:30pm 12.2 8.8 7.5 73 2.3 SSW 15 20 8 11 1018.5 1018.4 3.6
09/09:00pm 12.2 8.2 8.1 76 2.0 SSW 19 26 10 14 1018.1 1018.0 3.6
09/08:30pm 12.4 8.9 8.9 79 1.8 S 17 26 9 14 1017.8 1017.7 3.6
09/08:00pm 12.8 8.9 8.7 76 2.0 S 19 30 10 16 1017.5 1017.4 3.6
09/07:30pm 13.3 9.5 9.0 75 2.2 S 19 22 10 12 1017.2 1017.1 3.6
09/07:00pm 13.2 9.4 9.1 76 2.1 S 19 28 10 15 1017.0 1016.9 3.6
09/06:30pm 13.2 9.2 8.9 75 2.2 S 20 30 11 16 1016.7 1016.6 3.6
09/06:00pm 13.2 9.8 9.3 77 2.0 SE 17 26 9 14 1016.6 1016.5 3.6
09/05:30pm 13.6 9.6 9.1 74 2.3 SE 20 30 11 16 1016.4 1016.3 3.6
09/05:00pm 14.4 10.9 10.2 76 2.2 S 19 28 10 15 1016.4 1016.3 3.6
09/04:30pm 13.4 10.7 10.4 82 1.6 SSE 15 26 8 14 1016.5 1016.4 3.6
09/04:00pm 12.7 8.1 9.7 82 1.5 SSW 24 39 13 21 1016.5 1016.4 3.4
09/03:55pm 13.1 8.8 9.2 77 2.0 SSW 22 39 12 21 1016.5 1016.4 3.2
09/03:30pm 14.2 12.2 10.0 76 2.2 SSW 11 19 6 10 1016.1 1016.0 2.8
09/03:00pm 14.0 10.1 10.8 81 1.7 S 22 33 12 18 1016.0 1015.9 2.6
09/02:30pm 13.0 8.3 10.7 86 1.2 S 26 39 14 21 1016.0 1015.9 2.6
09/02:00pm 14.5 12.1 11.5 82 1.6 SSE 15 26 8 14 1015.8 1015.7 2.2
09/01:30pm 14.2 10.8 9.2 72 2.6 S 17 28 9 15 1015.9 1015.8 1.6
09/01:00pm 13.1 9.2 9.4 78 1.9 S 20 32 11 17 1016.2 1016.1 1.2
09/12:30pm 15.2 14.4 11.0 76 2.2 SSW 6 13 3 7 1016.2 1016.1 0.8
09/12:00pm 13.8 11.3 9.8 77 2.1 SE 13 19 7 10 1016.2 1016.1 0.4
09/11:30am 14.3 10.8 7.1 62 3.5 ESE 15 22 8 12 1016.1 1016.0 0.0
09/11:00am 14.6 10.1 5.9 56 4.2 SSW 19 33 10 18 1016.2 1016.1 0.0
09/10:30am 14.2 9.6 5.8 57 4.0 SSE 19 30 10 16 1016.2 1016.1 0.0
09/10:00am 13.5 8.8 6.1 61 3.5 SSW 20 33 11 18 1016.3 1016.2 0.0
09/09:30am 14.5 9.3 5.3 54 4.3 SSW 22 33 12 18 1016.2 1016.1 0.0
09/09:00am 13.6 8.9 6.2 61 3.5 SW 20 35 11 19 1016.5 1016.4 0.6
09/08:30am 12.2 7.4 5.6 64 3.1 SW 20 32 11 17 1016.7 1016.6 0.6
09/08:00am 11.7 6.9 4.9 63 3.1 SSW 19 26 10 14 1016.2 1016.1 0.6
09/07:30am 11.5 7.4 4.5 62 3.2 S 15 26 8 14 1015.9 1015.8 0.6
09/07:00am 11.5 6.7 4.5 62 3.2 SSW 19 30 10 16 1015.5 1015.4 0.6
09/06:30am 9.9 5.4 4.3 68 2.5 SSW 17 30 9 16 1015.4 1015.3 0.6
09/06:00am 9.0 4.6 4.6 74 2.0 SSW 17 26 9 14 1015.2 1015.1 0.6
09/05:30am 8.8 4.3 4.4 74 1.9 SSW 17 33 9 18 1015.2 1015.1 0.6
09/05:00am 8.6 4.6 5.0 78 1.6 SSW 15 26 8 14 1015.0 1014.9 0.6
09/04:30am 8.6 4.6 5.0 78 1.6 SSW 15 20 8 11 1015.0 1014.9 0.4
09/04:00am 8.6 4.4 4.0 73 2.0 SW 15 20 8 11 1015.0 1014.9 0.0
09/03:30am 8.9 4.3 3.5 69 2.3 SW 17 28 9 15 1014.9 1014.8 0.0
09/03:00am 8.8 5.3 3.4 69 2.3 S 11 28 6 15 1014.8 1014.7 0.0
09/02:30am 8.5 3.9 3.9 73 2.0 SW 17 26 9 14 1015.0 1014.9 0.0
09/02:00am 8.8 4.8 3.0 67 2.5 SW 13 20 7 11 1015.1 1015.0 0.0
09/01:30am 9.0 5.3 2.1 62 2.9 SSW 11 19 6 10 1015.0 1014.9 0.0
09/01:00am 8.8 5.3 1.2 59 3.1 SSW 9 20 5 11 1015.0 1014.9 0.0
09/12:30am 8.8 5.3 1.0 58 3.2 S 9 17 5 9 1015.0 1014.9 0.0
09/12:00am 7.9 4.8 1.3 63 2.7 SW 7 15 4 8 1015.0 1014.9 0.0
 
Date/Time
EDT
Temp
°C
App
Temp
°C
Dew
Point
°C
Rel
Hum
%
Delta-T
°C
Wind Press
QNH
hPa
Press
MSL
hPa
Rain since
9am
mm
Dir  Spd
km/h
Gust
km/h
Spd
kts
Gust
kts
08/11:30pm 8.5 4.7 1.6 62 2.8 SW 11 24 6 13 1015.0 1014.9 0.0
08/11:00pm 8.6 4.0 1.3 60 3.0 SSW 15 22 8 12 1014.9 1014.8 0.0
08/10:30pm 8.7 5.3 1.8 62 2.9 SW 9 17 5 9 1014.9 1014.8 0.0
08/10:00pm 9.7 4.9 0.3 52 3.8 SSW 15 24 8 13 1014.8 1014.7 0.0
08/09:30pm 9.7 5.2 -0.5 49 4.0 S 13 24 7 13 1014.6 1014.5 0.0
08/09:00pm 9.7 5.2 -0.2 50 4.0 SSW 13 24 7 13 1013.9 1013.8 0.0
08/08:30pm 10.2 6.2 0.5 51 4.0 SSW 11 17 6 9 1013.6 1013.5 0.0
08/08:00pm 10.8 5.2 -0.3 46 4.5 SSW 19 32 10 17 1013.2 1013.1 0.0
08/07:30pm 11.0 5.2 -0.2 46 4.5 SSW 20 39 11 21 1012.8 1012.7 0.0
08/07:00pm 11.7 5.0 -0.8 42 5.0 SSW 24 41 13 22 1012.2 1012.1 0.0
08/06:30pm 12.7 4.9 -0.5 40 5.4 SSW 30 52 16 28 1011.8 1011.7 0.0
08/06:03pm 13.4 6.0 -1.0 37 5.9 SSW 28 46 15 25 1011.2 1011.1 0.0
08/06:00pm 13.3 6.2 -1.4 36 5.9 SW 26 46 14 25 1011.1 1011.0 0.0
08/05:30pm 12.3 6.3 1.0 46 4.8 SW 22 35 12 19 1011.2 1011.1 0.0
08/05:00pm 12.4 6.0 0.8 45 4.9 SSW 24 48 13 26 1010.9 1010.8 0.0
08/04:30pm 13.3 5.4 1.3 44 5.1 SSW 32 50 17 27 1010.5 1010.4 0.0
08/04:29pm 13.2 5.3 1.2 44 5.1 SSW 32 50 17 27 1010.5 1010.4 0.0
08/04:22pm 13.2 6.4 0.9 43 5.2 SSW 26 50 14 27 1010.2 1010.2 0.0
08/04:00pm 14.6 8.1 2.5 44 5.4 WSW 26 44 14 24 1010.0 1010.0 0.0
08/03:39pm 15.0 8.2 3.2 45 5.3 SW 28 46 15 25 1010.0 1010.0 0.0
08/03:30pm 13.6 6.8 0.9 42 5.4 SSW 26 41 14 22 1009.8 1009.8 0.0
08/03:00pm 14.2 6.9 -0.3 37 6.1 SW 28 52 15 28 1009.4 1009.4 0.0
08/02:30pm 14.6 8.8 2.5 44 5.4 SW 22 33 12 18 1009.3 1009.3 0.0
08/02:00pm 13.3 5.6 2.5 48 4.8 SW 32 57 17 31 1009.1 1009.1 0.0
08/01:56pm 12.7 4.7 1.7 47 4.7 SW 33 57 18 31 1008.9 1008.9 0.0
08/01:30pm 14.8 8.3 4.8 51 4.7 WSW 28 46 15 25 1008.7 1008.7 0.0
08/01:17pm 13.1 5.8 2.4 48 4.7 SW 30 52 16 28 1008.7 1008.7 0.0
08/01:13pm 13.7 6.9 3.2 49 4.7 SW 28 46 15 25 1008.6 1008.6 0.0
08/01:00pm 13.8 7.7 4.7 54 4.2 WSW 26 56 14 30 1008.5 1008.5 0.0
08/12:57pm 12.6 6.7 4.1 56 3.9 WSW 24 56 13 30 1008.5 1008.5 0.0
08/12:55pm 12.6 6.6 3.6 54 4.0 WSW 24 56 13 30 1008.3 1008.3 0.0
08/12:30pm 13.3 7.5 2.5 48 4.8 SW 22 41 12 22 1008.1 1008.1 0.0
08/12:00pm 14.1 7.4 3.8 50 4.7 WSW 28 46 15 25 1007.8 1007.8 0.0
08/11:45am 13.0 6.9 2.8 50 4.5 WSW 24 52 13 28 1007.9 1007.9 0.0
08/11:30am 12.2 7.0 3.7 56 3.8 WSW 20 33 11 18 1008.0 1008.0 0.0
08/11:00am 12.2 6.2 3.4 55 3.9 SW 24 43 13 23 1007.6 1007.6 0.0
08/10:30am 11.6 5.3 3.6 58 3.6 SW 26 44 14 24 1007.1 1007.1 0.0
08/10:00am 12.0 7.1 4.2 59 3.5 W 19 37 10 20 1006.7 1006.7 0.0
08/09:30am 13.3 7.8 5.9 61 3.5 SW 24 52 13 28 1006.0 1006.0 0.0
08/09:00am 11.4 5.2 4.4 62 3.2 WSW 26 39 14 21 1005.5 1005.5 4.6
08/08:33am 10.9 4.4 4.6 65 2.8 SW 28 46 15 25 1004.8 1004.8 4.6
08/08:30am 10.8 5.1 4.9 67 2.7 SW 24 41 13 22 1004.8 1004.8 4.6
08/08:00am 10.4 4.6 4.5 67 2.7 SSW 24 35 13 19 1004.4 1004.4 4.6
08/07:30am 9.8 3.7 5.0 72 2.2 SW 26 37 14 20 1003.8 1003.8 4.6
08/07:00am 9.5 4.8 5.1 74 2.0 WSW 19 35 10 19 1003.1 1003.0 4.6
08/06:30am 9.2 3.6 5.2 76 1.8 WSW 24 39 13 21 1002.3 1002.2 4.6
08/06:00am 8.9 3.7 5.3 78 1.6 WSW 22 35 12 19 1001.8 1001.7 4.6
08/05:30am 8.5 3.3 5.3 80 1.4 SW 22 37 12 20 1001.1 1001.0 4.4
08/05:00am 8.4 1.9 4.8 78 1.6 SW 28 46 15 25 1000.5 1000.4 3.8
08/04:40am 8.4 1.9 4.8 78 1.6 SW 28 48 15 26 1000.0 999.9 3.6
08/04:30am 8.5 3.6 5.1 79 1.5 SW 20 44 11 24 1000.1 1000.0 3.4
08/04:00am 8.6 1.8 5.2 79 1.5 SW 30 59 16 32 999.2 999.1 3.0
08/03:30am 9.3 2.0 4.7 73 2.1 WSW 32 50 17 27 998.9 998.8 2.4
08/03:00am 10.3 5.3 4.5 67 2.6 W 20 35 11 19 998.9 998.8 2.4
08/02:30am 10.5 7.0 5.3 70 2.4 SW 13 32 7 17 998.7 998.6 2.4
08/02:00am 10.5 8.0 6.6 77 1.8 NNW 9 11 5 6 998.7 998.6 2.4
08/01:30am 10.6 8.6 7.3 80 1.6 NNE 7 13 4 7 998.7 998.6 2.2
08/01:00am 10.4 8.3 6.7 78 1.8 NE 7 9 4 5 998.5 998.4 2.2
08/12:30am 10.3 7.5 6.8 79 1.7 NNW 11 19 6 10 998.6 998.5 2.2
08/12:00am 11.4 8.3 5.5 67 2.8 NNW 11 17 6 9 998.3 998.2 2.2
 
Date/Time
EDT
Temp
°C
App
Temp
°C
Dew
Point
°C
Rel
Hum
%
Delta-T
°C
Wind Press
QNH
hPa
Press
MSL
hPa
Rain since
9am
mm
Dir  Spd
km/h
Gust
km/h
Spd
kts
Gust
kts
07/11:30pm 11.6 8.3 4.8 63 3.1 NW 11 19 6 10 998.2 998.1 2.2
07/11:00pm 11.2 8.5 5.7 69 2.6 W 9 11 5 6 998.3 998.2 2.0
07/10:30pm 10.7 7.9 5.3 69 2.5 SW 9 13 5 7 998.3 998.2 2.0
07/10:00pm 11.7 7.0 5.1 64 3.1 SW 19 28 10 15 998.4 998.3 2.0
07/09:30pm 12.1 8.9 5.0 62 3.3 SSW 11 20 6 11 997.9 997.8 2.0
07/09:00pm 12.4 9.0 5.8 64 3.1 SSW 13 24 7 13 997.7 997.6 2.0
07/08:30pm 12.7 10.5 8.0 73 2.3 WSW 9 13 5 7 997.6 997.5 2.0
07/08:00pm 12.6 10.4 7.9 73 2.3 SW 9 13 5 7 997.4 997.3 2.0
07/07:30pm 12.9 10.6 7.4 69 2.7 WSW 9 28 5 15 997.1 997.0 2.0
07/07:00pm 14.8 10.2 5.6 54 4.4 SSW 19 33 10 18 996.7 996.6 0.0
07/06:30pm 15.1 10.3 5.6 53 4.5 SW 20 30 11 16 996.6 996.5 0.0
07/06:00pm 14.8 9.2 5.3 53 4.5 SSE 24 46 13 25 996.4 996.3 0.0
07/05:30pm 14.4 10.0 7.5 63 3.4 SE 20 32 11 17 996.5 996.4 0.0
07/05:00pm 14.9 9.4 7.7 62 3.6 SE 26 37 14 20 996.3 996.2 0.0
07/04:30pm 15.1 9.3 8.1 63 3.5 SE 28 37 15 20 996.6 996.5 0.0
07/04:00pm 14.4 9.6 7.5 63 3.4 SE 22 32 12 17 997.0 996.9 0.0
07/03:30pm 14.4 10.4 8.1 66 3.2 SE 19 28 10 15 997.5 997.4 0.0
07/03:00pm 13.9 8.6 7.0 63 3.4 SE 24 35 13 19 997.8 997.7 0.0
07/02:30pm 14.4 9.3 7.7 64 3.3 ESE 24 32 13 17 997.6 997.5 0.0
07/02:00pm 14.5 9.2 6.8 60 3.8 SE 24 32 13 17 997.6 997.5 0.0
07/01:30pm 15.0 9.8 7.1 59 3.9 ESE 24 33 13 18 997.7 997.6 0.0
07/01:00pm 16.2 12.2 8.2 59 4.1 ESE 19 24 10 13 997.9 997.8 0.0
07/12:30pm 15.5 11.5 6.5 55 4.4 ESE 17 20 9 11 998.2 998.1 0.0
07/12:00pm 15.5 11.3 5.7 52 4.7 ESE 17 20 9 11 998.6 998.5 0.0
07/11:30am 15.7 12.0 6.4 54 4.5 SE 15 19 8 10 999.0 998.9 0.0
07/11:00am 14.6 10.4 5.9 56 4.2 SE 17 22 9 12 999.3 999.2 0.0
07/10:30am 15.1 11.7 6.1 55 4.3 ESE 13 17 7 9 999.8 999.7 0.0
07/10:00am 14.0 10.6 3.8 50 4.7 NE 11 15 6 8 1000.1 1000.0 0.0

Other formats

Comma delimited format used in spreadsheet applications
http://www.bom.gov.au/fwo/IDT60801/IDT60801.94970.axf

JavaScript Object Notation format (JSON) in row-major order
http://www.bom.gov.au/fwo/IDT60801/IDT60801.94970.json

Data quality

Most of these data are generated automatically and are frequently updated. Quality checks on data are not normally performed. It is possible for incorrect values to appear. Refer to information at About Latest Weather Observations and please check the disclaimer before using these data.